sensor_id;sensor_type;location;lat;lon;timestamp;P1;durP1;ratioP1;P2;durP2;ratioP2
8104;SDS011;4095;48.942;9.104;2022-11-11T00:00:57;51.40;;;19.73;;
8104;SDS011;4095;48.942;9.104;2022-11-11T00:03:24;32.70;;;13.27;;
8104;SDS011;4095;48.942;9.104;2022-11-11T00:05:50;31.00;;;14.10;;
8104;SDS011;4095;48.942;9.104;2022-11-11T00:08:16;24.97;;;12.23;;
8104;SDS011;4095;48.942;9.104;2022-11-11T00:10:41;31.53;;;13.33;;
8104;SDS011;4095;48.942;9.104;2022-11-11T00:13:07;28.17;;;13.37;;
8104;SDS011;4095;48.942;9.104;2022-11-11T00:15:35;17.37;;;9.47;;
8104;SDS011;4095;48.942;9.104;2022-11-11T00:18:01;19.53;;;9.57;;
8104;SDS011;4095;48.942;9.104;2022-11-11T00:20:45;20.37;;;10.50;;
8104;SDS011;4095;48.942;9.104;2022-11-11T00:23:29;17.23;;;10.37;;
8104;SDS011;4095;48.942;9.104;2022-11-11T00:26:14;17.43;;;10.63;;
8104;SDS011;4095;48.942;9.104;2022-11-11T00:28:39;19.60;;;11.90;;
8104;SDS011;4095;48.942;9.104;2022-11-11T00:31:07;19.07;;;11.57;;
8104;SDS011;4095;48.942;9.104;2022-11-11T00:33:34;18.73;;;11.13;;
8104;SDS011;4095;48.942;9.104;2022-11-11T00:36:00;17.73;;;11.40;;
8104;SDS011;4095;48.942;9.104;2022-11-11T00:38:25;15.17;;;10.43;;
8104;SDS011;4095;48.942;9.104;2022-11-11T00:41:10;18.10;;;10.63;;
8104;SDS011;4095;48.942;9.104;2022-11-11T00:43:37;14.67;;;9.80;;
8104;SDS011;4095;48.942;9.104;2022-11-11T00:46:03;14.60;;;10.10;;
8104;SDS011;4095;48.942;9.104;2022-11-11T00:48:47;14.83;;;9.43;;
8104;SDS011;4095;48.942;9.104;2022-11-11T00:51:31;13.23;;;9.10;;
8104;SDS011;4095;48.942;9.104;2022-11-11T00:53:57;13.00;;;9.03;;
8104;SDS011;4095;48.942;9.104;2022-11-11T00:56:23;13.23;;;8.97;;
8104;SDS011;4095;48.942;9.104;2022-11-11T00:58:48;14.33;;;9.77;;
8104;SDS011;4095;48.942;9.104;2022-11-11T01:01:14;14.93;;;8.57;;
8104;SDS011;4095;48.942;9.104;2022-11-11T01:03:40;19.50;;;11.30;;
8104;SDS011;4095;48.942;9.104;2022-11-11T01:06:06;67.13;;;24.07;;
8104;SDS011;4095;48.942;9.104;2022-11-11T01:08:33;11.87;;;8.10;;
8104;SDS011;4095;48.942;9.104;2022-11-11T01:10:58;11.63;;;7.53;;
8104;SDS011;4095;48.942;9.104;2022-11-11T01:13:25;11.83;;;6.97;;
8104;SDS011;4095;48.942;9.104;2022-11-11T01:15:59;14.80;;;9.00;;
8104;SDS011;4095;48.942;9.104;2022-11-11T01:18:32;14.23;;;8.33;;
8104;SDS011;4095;48.942;9.104;2022-11-11T01:23:23;16.90;;;9.50;;
8104;SDS011;4095;48.942;9.104;2022-11-11T01:25:49;16.50;;;9.50;;
8104;SDS011;4095;48.942;9.104;2022-11-11T01:28:16;12.73;;;7.77;;
8104;SDS011;4095;48.942;9.104;2022-11-11T01:30:42;11.17;;;7.53;;
8104;SDS011;4095;48.942;9.104;2022-11-11T01:33:09;11.83;;;8.10;;
8104;SDS011;4095;48.942;9.104;2022-11-11T01:35:38;11.53;;;7.47;;
8104;SDS011;4095;48.942;9.104;2022-11-11T01:38:06;12.87;;;8.53;;
8104;SDS011;4095;48.942;9.104;2022-11-11T01:40:39;14.70;;;8.87;;
8104;SDS011;4095;48.942;9.104;2022-11-11T01:45:43;11.73;;;8.27;;
8104;SDS011;4095;48.942;9.104;2022-11-11T01:48:18;10.90;;;7.93;;
8104;SDS011;4095;48.942;9.104;2022-11-11T01:51:10;18.93;;;9.47;;
8104;SDS011;4095;48.942;9.104;2022-11-11T01:53:59;17.57;;;9.77;;
8104;SDS011;4095;48.942;9.104;2022-11-11T01:56:29;13.83;;;8.33;;
8104;SDS011;4095;48.942;9.104;2022-11-11T01:58:55;10.37;;;7.60;;
8104;SDS011;4095;48.942;9.104;2022-11-11T02:01:25;9.90;;;6.80;;
8104;SDS011;4095;48.942;9.104;2022-11-11T02:03:51;9.43;;;6.90;;
8104;SDS011;4095;48.942;9.104;2022-11-11T02:06:37;12.30;;;7.60;;
8104;SDS011;4095;48.942;9.104;2022-11-11T02:09:03;13.90;;;8.47;;
8104;SDS011;4095;48.942;9.104;2022-11-11T02:11:31;10.50;;;7.70;;
8104;SDS011;4095;48.942;9.104;2022-11-11T02:14:18;12.33;;;8.70;;
8104;SDS011;4095;48.942;9.104;2022-11-11T02:17:07;12.60;;;8.80;;
8104;SDS011;4095;48.942;9.104;2022-11-11T02:19:44;11.47;;;8.47;;
8104;SDS011;4095;48.942;9.104;2022-11-11T02:24:54;13.17;;;8.67;;
8104;SDS011;4095;48.942;9.104;2022-11-11T02:27:21;15.90;;;10.50;;
8104;SDS011;4095;48.942;9.104;2022-11-11T02:29:49;26.40;;;14.27;;
8104;SDS011;4095;48.942;9.104;2022-11-11T02:32:17;9.67;;;7.03;;
8104;SDS011;4095;48.942;9.104;2022-11-11T02:34:42;14.63;;;8.90;;
8104;SDS011;4095;48.942;9.104;2022-11-11T02:37:08;10.80;;;6.33;;
8104;SDS011;4095;48.942;9.104;2022-11-11T02:39:36;8.70;;;5.93;;
8104;SDS011;4095;48.942;9.104;2022-11-11T02:42:06;7.93;;;6.37;;
8104;SDS011;4095;48.942;9.104;2022-11-11T02:44:34;8.77;;;5.87;;
8104;SDS011;4095;48.942;9.104;2022-11-11T02:47:02;7.53;;;6.00;;
8104;SDS011;4095;48.942;9.104;2022-11-11T02:49:28;9.17;;;6.00;;
8104;SDS011;4095;48.942;9.104;2022-11-11T02:51:54;10.07;;;6.70;;
8104;SDS011;4095;48.942;9.104;2022-11-11T02:54:19;19.07;;;9.77;;
8104;SDS011;4095;48.942;9.104;2022-11-11T02:56:45;18.80;;;11.20;;
8104;SDS011;4095;48.942;9.104;2022-11-11T02:59:29;13.73;;;8.73;;
8104;SDS011;4095;48.942;9.104;2022-11-11T03:01:55;22.97;;;13.00;;
8104;SDS011;4095;48.942;9.104;2022-11-11T03:04:20;10.93;;;7.97;;
8104;SDS011;4095;48.942;9.104;2022-11-11T03:06:46;8.03;;;6.37;;
8104;SDS011;4095;48.942;9.104;2022-11-11T03:09:11;11.23;;;7.70;;
8104;SDS011;4095;48.942;9.104;2022-11-11T03:11:37;9.23;;;7.20;;
8104;SDS011;4095;48.942;9.104;2022-11-11T03:14:03;18.40;;;10.87;;
8104;SDS011;4095;48.942;9.104;2022-11-11T03:16:29;13.60;;;8.67;;
8104;SDS011;4095;48.942;9.104;2022-11-11T03:19:13;14.63;;;9.63;;
8104;SDS011;4095;48.942;9.104;2022-11-11T03:21:38;24.43;;;12.37;;
8104;SDS011;4095;48.942;9.104;2022-11-11T03:24:04;23.53;;;13.00;;
8104;SDS011;4095;48.942;9.104;2022-11-11T03:26:30;16.20;;;10.43;;
8104;SDS011;4095;48.942;9.104;2022-11-11T03:28:56;11.17;;;8.13;;
8104;SDS011;4095;48.942;9.104;2022-11-11T03:31:21;12.97;;;8.37;;
8104;SDS011;4095;48.942;9.104;2022-11-11T03:33:47;12.87;;;8.53;;
8104;SDS011;4095;48.942;9.104;2022-11-11T03:36:13;14.20;;;8.83;;
8104;SDS011;4095;48.942;9.104;2022-11-11T03:38:39;12.47;;;8.37;;
8104;SDS011;4095;48.942;9.104;2022-11-11T03:41:04;14.93;;;9.50;;
8104;SDS011;4095;48.942;9.104;2022-11-11T03:43:31;18.70;;;10.33;;
8104;SDS011;4095;48.942;9.104;2022-11-11T03:45:59;17.93;;;9.90;;
8104;SDS011;4095;48.942;9.104;2022-11-11T03:48:27;9.53;;;7.27;;
8104;SDS011;4095;48.942;9.104;2022-11-11T03:50:54;10.73;;;7.30;;
8104;SDS011;4095;48.942;9.104;2022-11-11T03:53:20;9.40;;;6.40;;
8104;SDS011;4095;48.942;9.104;2022-11-11T03:55:49;10.37;;;7.10;;
8104;SDS011;4095;48.942;9.104;2022-11-11T03:58:16;8.30;;;6.47;;
8104;SDS011;4095;48.942;9.104;2022-11-11T04:00:42;8.30;;;6.60;;
8104;SDS011;4095;48.942;9.104;2022-11-11T04:03:10;12.63;;;8.33;;
8104;SDS011;4095;48.942;9.104;2022-11-11T04:05:55;8.30;;;7.10;;
8104;SDS011;4095;48.942;9.104;2022-11-11T04:08:40;11.97;;;8.17;;
8104;SDS011;4095;48.942;9.104;2022-11-11T04:11:25;10.80;;;7.47;;
8104;SDS011;4095;48.942;9.104;2022-11-11T04:13:53;7.93;;;6.80;;
8104;SDS011;4095;48.942;9.104;2022-11-11T04:16:42;9.20;;;6.30;;
8104;SDS011;4095;48.942;9.104;2022-11-11T04:19:08;8.13;;;6.60;;
8104;SDS011;4095;48.942;9.104;2022-11-11T04:21:52;8.23;;;6.17;;
8104;SDS011;4095;48.942;9.104;2022-11-11T04:24:18;8.07;;;6.00;;
8104;SDS011;4095;48.942;9.104;2022-11-11T04:27:05;7.50;;;6.30;;
8104;SDS011;4095;48.942;9.104;2022-11-11T04:29:32;10.70;;;6.00;;
8104;SDS011;4095;48.942;9.104;2022-11-11T04:32:05;7.47;;;5.93;;
8104;SDS011;4095;48.942;9.104;2022-11-11T04:34:51;7.30;;;6.37;;
8104;SDS011;4095;48.942;9.104;2022-11-11T04:37:21;7.40;;;6.60;;
8104;SDS011;4095;48.942;9.104;2022-11-11T04:39:48;10.83;;;5.80;;
8104;SDS011;4095;48.942;9.104;2022-11-11T04:42:32;8.20;;;6.30;;
8104;SDS011;4095;48.942;9.104;2022-11-11T04:44:59;7.60;;;5.87;;
8104;SDS011;4095;48.942;9.104;2022-11-11T04:50:28;8.13;;;5.93;;
8104;SDS011;4095;48.942;9.104;2022-11-11T04:52:56;7.23;;;5.83;;
8104;SDS011;4095;48.942;9.104;2022-11-11T04:55:22;7.57;;;5.97;;
8104;SDS011;4095;48.942;9.104;2022-11-11T04:58:07;9.63;;;6.80;;
8104;SDS011;4095;48.942;9.104;2022-11-11T05:00:33;10.17;;;7.00;;
8104;SDS011;4095;48.942;9.104;2022-11-11T05:02:58;7.43;;;6.10;;
8104;SDS011;4095;48.942;9.104;2022-11-11T05:08:28;9.57;;;6.67;;
8104;SDS011;4095;48.942;9.104;2022-11-11T05:11:12;7.13;;;6.20;;
8104;SDS011;4095;48.942;9.104;2022-11-11T05:13:38;8.80;;;6.63;;
8104;SDS011;4095;48.942;9.104;2022-11-11T05:16:24;9.83;;;6.67;;
8104;SDS011;4095;48.942;9.104;2022-11-11T05:19:10;8.73;;;6.53;;
8104;SDS011;4095;48.942;9.104;2022-11-11T05:21:56;9.43;;;6.63;;
8104;SDS011;4095;48.942;9.104;2022-11-11T05:24:29;9.50;;;6.30;;
8104;SDS011;4095;48.942;9.104;2022-11-11T05:27:13;6.90;;;5.90;;
8104;SDS011;4095;48.942;9.104;2022-11-11T05:29:38;8.47;;;6.13;;
8104;SDS011;4095;48.942;9.104;2022-11-11T05:32:04;7.50;;;6.30;;
8104;SDS011;4095;48.942;9.104;2022-11-11T05:34:32;8.23;;;5.93;;
8104;SDS011;4095;48.942;9.104;2022-11-11T05:36:57;8.87;;;6.67;;
8104;SDS011;4095;48.942;9.104;2022-11-11T05:39:23;9.17;;;6.70;;
8104;SDS011;4095;48.942;9.104;2022-11-11T05:41:48;6.93;;;5.80;;
8104;SDS011;4095;48.942;9.104;2022-11-11T05:44:14;8.90;;;6.27;;
8104;SDS011;4095;48.942;9.104;2022-11-11T05:46:40;8.03;;;6.37;;
8104;SDS011;4095;48.942;9.104;2022-11-11T05:49:05;7.83;;;6.40;;
8104;SDS011;4095;48.942;9.104;2022-11-11T05:51:40;9.40;;;6.87;;
8104;SDS011;4095;48.942;9.104;2022-11-11T05:54:07;8.97;;;7.43;;
8104;SDS011;4095;48.942;9.104;2022-11-11T05:56:32;33.47;;;16.10;;
8104;SDS011;4095;48.942;9.104;2022-11-11T05:58:58;21.27;;;12.37;;
8104;SDS011;4095;48.942;9.104;2022-11-11T06:01:24;34.80;;;17.10;;
8104;SDS011;4095;48.942;9.104;2022-11-11T06:03:50;35.80;;;16.17;;
8104;SDS011;4095;48.942;9.104;2022-11-11T06:06:15;24.47;;;11.87;;
8104;SDS011;4095;48.942;9.104;2022-11-11T06:08:41;24.70;;;11.77;;
8104;SDS011;4095;48.942;9.104;2022-11-11T06:11:07;13.27;;;8.47;;
8104;SDS011;4095;48.942;9.104;2022-11-11T06:13:33;10.77;;;7.33;;
8104;SDS011;4095;48.942;9.104;2022-11-11T06:15:58;10.60;;;7.77;;
8104;SDS011;4095;48.942;9.104;2022-11-11T06:18:24;15.33;;;9.13;;
8104;SDS011;4095;48.942;9.104;2022-11-11T06:20:53;17.23;;;8.37;;
8104;SDS011;4095;48.942;9.104;2022-11-11T06:23:23;12.77;;;8.40;;
8104;SDS011;4095;48.942;9.104;2022-11-11T06:25:50;11.40;;;8.00;;
8104;SDS011;4095;48.942;9.104;2022-11-11T06:28:34;8.40;;;7.23;;
8104;SDS011;4095;48.942;9.104;2022-11-11T06:31:00;8.63;;;6.60;;
8104;SDS011;4095;48.942;9.104;2022-11-11T06:33:27;8.40;;;6.77;;
8104;SDS011;4095;48.942;9.104;2022-11-11T06:35:53;8.63;;;7.30;;
8104;SDS011;4095;48.942;9.104;2022-11-11T06:38:19;16.63;;;9.87;;
8104;SDS011;4095;48.942;9.104;2022-11-11T06:40:44;10.23;;;8.17;;
8104;SDS011;4095;48.942;9.104;2022-11-11T06:43:10;10.20;;;6.27;;
8104;SDS011;4095;48.942;9.104;2022-11-11T06:45:36;10.73;;;6.67;;
8104;SDS011;4095;48.942;9.104;2022-11-11T06:48:02;12.13;;;8.70;;
8104;SDS011;4095;48.942;9.104;2022-11-11T06:50:29;19.17;;;12.50;;
8104;SDS011;4095;48.942;9.104;2022-11-11T06:53:00;17.17;;;11.67;;
8104;SDS011;4095;48.942;9.104;2022-11-11T06:55:28;13.63;;;8.00;;
8104;SDS011;4095;48.942;9.104;2022-11-11T06:57:54;74.27;;;38.13;;
8104;SDS011;4095;48.942;9.104;2022-11-11T07:00:20;97.90;;;48.97;;
8104;SDS011;4095;48.942;9.104;2022-11-11T07:02:45;47.43;;;25.97;;
8104;SDS011;4095;48.942;9.104;2022-11-11T07:05:11;52.00;;;27.87;;
8104;SDS011;4095;48.942;9.104;2022-11-11T07:07:37;112.27;;;57.07;;
8104;SDS011;4095;48.942;9.104;2022-11-11T07:10:03;82.17;;;46.23;;
8104;SDS011;4095;48.942;9.104;2022-11-11T07:12:31;62.77;;;35.07;;
8104;SDS011;4095;48.942;9.104;2022-11-11T07:14:56;55.33;;;32.80;;
8104;SDS011;4095;48.942;9.104;2022-11-11T07:17:22;37.70;;;23.53;;
8104;SDS011;4095;48.942;9.104;2022-11-11T07:19:48;36.87;;;22.33;;
8104;SDS011;4095;48.942;9.104;2022-11-11T07:22:13;34.20;;;20.20;;
8104;SDS011;4095;48.942;9.104;2022-11-11T07:24:39;28.40;;;16.97;;
8104;SDS011;4095;48.942;9.104;2022-11-11T07:27:05;16.50;;;10.87;;
8104;SDS011;4095;48.942;9.104;2022-11-11T07:29:30;10.93;;;9.70;;
8104;SDS011;4095;48.942;9.104;2022-11-11T07:31:56;13.37;;;9.90;;
8104;SDS011;4095;48.942;9.104;2022-11-11T07:34:21;14.07;;;9.67;;
8104;SDS011;4095;48.942;9.104;2022-11-11T07:36:47;11.30;;;8.90;;
8104;SDS011;4095;48.942;9.104;2022-11-11T07:39:13;11.37;;;9.30;;
8104;SDS011;4095;48.942;9.104;2022-11-11T07:41:38;11.67;;;9.33;;
8104;SDS011;4095;48.942;9.104;2022-11-11T07:44:04;11.30;;;9.27;;
8104;SDS011;4095;48.942;9.104;2022-11-11T07:46:29;13.03;;;9.90;;
8104;SDS011;4095;48.942;9.104;2022-11-11T07:48:55;13.67;;;9.57;;
8104;SDS011;4095;48.942;9.104;2022-11-11T07:51:21;12.37;;;9.50;;
8104;SDS011;4095;48.942;9.104;2022-11-11T07:53:46;12.93;;;9.53;;
8104;SDS011;4095;48.942;9.104;2022-11-11T07:56:12;14.83;;;9.90;;
8104;SDS011;4095;48.942;9.104;2022-11-11T07:58:37;12.73;;;9.97;;
8104;SDS011;4095;48.942;9.104;2022-11-11T08:01:03;12.43;;;9.37;;
8104;SDS011;4095;48.942;9.104;2022-11-11T08:03:28;13.00;;;9.37;;
8104;SDS011;4095;48.942;9.104;2022-11-11T08:05:54;15.60;;;12.07;;
8104;SDS011;4095;48.942;9.104;2022-11-11T08:08:20;14.80;;;12.97;;
8104;SDS011;4095;48.942;9.104;2022-11-11T08:10:52;14.93;;;12.43;;
8104;SDS011;4095;48.942;9.104;2022-11-11T08:13:18;12.27;;;10.40;;
8104;SDS011;4095;48.942;9.104;2022-11-11T08:16:02;15.37;;;11.83;;
8104;SDS011;4095;48.942;9.104;2022-11-11T08:18:30;16.20;;;11.47;;
8104;SDS011;4095;48.942;9.104;2022-11-11T08:20:56;12.67;;;10.40;;
8104;SDS011;4095;48.942;9.104;2022-11-11T08:23:22;11.47;;;9.17;;
8104;SDS011;4095;48.942;9.104;2022-11-11T08:25:56;11.63;;;9.30;;
8104;SDS011;4095;48.942;9.104;2022-11-11T08:28:27;11.53;;;9.30;;
8104;SDS011;4095;48.942;9.104;2022-11-11T08:30:54;10.73;;;8.03;;
8104;SDS011;4095;48.942;9.104;2022-11-11T08:33:22;13.13;;;8.90;;
8104;SDS011;4095;48.942;9.104;2022-11-11T08:35:47;12.10;;;9.47;;
8104;SDS011;4095;48.942;9.104;2022-11-11T08:38:13;13.70;;;9.87;;
8104;SDS011;4095;48.942;9.104;2022-11-11T08:40:39;12.80;;;9.93;;
8104;SDS011;4095;48.942;9.104;2022-11-11T08:43:05;11.43;;;8.67;;
8104;SDS011;4095;48.942;9.104;2022-11-11T08:45:30;11.80;;;9.23;;
8104;SDS011;4095;48.942;9.104;2022-11-11T08:47:56;10.57;;;7.70;;
8104;SDS011;4095;48.942;9.104;2022-11-11T08:50:22;8.20;;;7.20;;
8104;SDS011;4095;48.942;9.104;2022-11-11T08:52:48;10.17;;;7.50;;
8104;SDS011;4095;48.942;9.104;2022-11-11T08:55:15;9.37;;;7.67;;
8104;SDS011;4095;48.942;9.104;2022-11-11T08:57:41;10.80;;;7.57;;
8104;SDS011;4095;48.942;9.104;2022-11-11T09:00:06;13.97;;;7.63;;
8104;SDS011;4095;48.942;9.104;2022-11-11T09:02:33;10.47;;;7.70;;
8104;SDS011;4095;48.942;9.104;2022-11-11T09:05:00;12.23;;;8.13;;
8104;SDS011;4095;48.942;9.104;2022-11-11T09:07:26;11.63;;;8.73;;
8104;SDS011;4095;48.942;9.104;2022-11-11T09:09:52;11.63;;;8.37;;
8104;SDS011;4095;48.942;9.104;2022-11-11T09:12:18;10.43;;;7.70;;
8104;SDS011;4095;48.942;9.104;2022-11-11T09:14:44;11.87;;;7.93;;
8104;SDS011;4095;48.942;9.104;2022-11-11T09:17:09;9.17;;;7.33;;
8104;SDS011;4095;48.942;9.104;2022-11-11T09:19:35;10.43;;;7.10;;
8104;SDS011;4095;48.942;9.104;2022-11-11T09:22:01;10.60;;;7.40;;
8104;SDS011;4095;48.942;9.104;2022-11-11T09:24:27;8.47;;;7.60;;
8104;SDS011;4095;48.942;9.104;2022-11-11T09:26:52;10.33;;;6.70;;
8104;SDS011;4095;48.942;9.104;2022-11-11T09:29:18;10.77;;;6.93;;
8104;SDS011;4095;48.942;9.104;2022-11-11T09:31:44;11.80;;;7.40;;
8104;SDS011;4095;48.942;9.104;2022-11-11T09:34:11;9.53;;;7.03;;
8104;SDS011;4095;48.942;9.104;2022-11-11T09:36:37;11.30;;;7.23;;
8104;SDS011;4095;48.942;9.104;2022-11-11T09:39:03;9.37;;;7.27;;
8104;SDS011;4095;48.942;9.104;2022-11-11T09:44:29;10.33;;;7.10;;
8104;SDS011;4095;48.942;9.104;2022-11-11T09:57:52;8.27;;;6.30;;
8104;SDS011;4095;48.942;9.104;2022-11-11T10:00:24;9.20;;;6.10;;
8104;SDS011;4095;48.942;9.104;2022-11-11T10:02:54;9.50;;;7.07;;
8104;SDS011;4095;48.942;9.104;2022-11-11T10:05:26;9.57;;;6.40;;
8104;SDS011;4095;48.942;9.104;2022-11-11T10:08:04;8.00;;;5.70;;
8104;SDS011;4095;48.942;9.104;2022-11-11T10:10:44;7.97;;;5.37;;
8104;SDS011;4095;48.942;9.104;2022-11-11T10:13:15;11.00;;;5.13;;
8104;SDS011;4095;48.942;9.104;2022-11-11T10:15:48;7.00;;;5.10;;
8104;SDS011;4095;48.942;9.104;2022-11-11T10:20:55;9.00;;;4.93;;
8104;SDS011;4095;48.942;9.104;2022-11-11T10:23:39;5.90;;;4.80;;
8104;SDS011;4095;48.942;9.104;2022-11-11T10:26:52;8.57;;;5.17;;
8104;SDS011;4095;48.942;9.104;2022-11-11T10:29:01;7.27;;;4.73;;
8104;SDS011;4095;48.942;9.104;2022-11-11T10:31:29;8.03;;;5.57;;
8104;SDS011;4095;48.942;9.104;2022-11-11T10:33:57;6.37;;;5.33;;
8104;SDS011;4095;48.942;9.104;2022-11-11T10:36:29;10.80;;;5.03;;
8104;SDS011;4095;48.942;9.104;2022-11-11T10:39:02;5.10;;;4.60;;
8104;SDS011;4095;48.942;9.104;2022-11-11T10:41:30;6.60;;;4.30;;
8104;SDS011;4095;48.942;9.104;2022-11-11T10:44:01;6.07;;;4.07;;
8104;SDS011;4095;48.942;9.104;2022-11-11T10:46:53;6.53;;;4.30;;
8104;SDS011;4095;48.942;9.104;2022-11-11T10:49:27;6.50;;;4.40;;
8104;SDS011;4095;48.942;9.104;2022-11-11T10:54:42;4.65;;;3.95;;
8104;SDS011;4095;48.942;9.104;2022-11-11T10:57:28;4.90;;;3.83;;
8104;SDS011;4095;48.942;9.104;2022-11-11T11:00:09;7.22;;;3.72;;
8104;SDS011;4095;48.942;9.104;2022-11-11T11:02:50;5.13;;;3.58;;
8104;SDS011;4095;48.942;9.104;2022-11-11T11:05:44;5.70;;;3.78;;
8104;SDS011;4095;48.942;9.104;2022-11-11T11:08:22;5.07;;;3.40;;
8104;SDS011;4095;48.942;9.104;2022-11-11T11:10:55;5.03;;;3.63;;
8104;SDS011;4095;48.942;9.104;2022-11-11T11:13:27;5.68;;;3.70;;
8104;SDS011;4095;48.942;9.104;2022-11-11T11:24:22;5.50;;;3.70;;
8104;SDS011;4095;48.942;9.104;2022-11-11T11:26:48;4.05;;;3.47;;
8104;SDS011;4095;48.942;9.104;2022-11-11T11:29:50;5.10;;;3.50;;
8104;SDS011;4095;48.942;9.104;2022-11-11T11:32:16;6.20;;;3.90;;
8104;SDS011;4095;48.942;9.104;2022-11-11T11:37:14;5.40;;;3.95;;
8104;SDS011;4095;48.942;9.104;2022-11-11T11:39:40;5.78;;;3.58;;
8104;SDS011;4095;48.942;9.104;2022-11-11T11:42:07;5.10;;;3.58;;
8104;SDS011;4095;48.942;9.104;2022-11-11T11:44:37;7.78;;;3.40;;
8104;SDS011;4095;48.942;9.104;2022-11-11T11:52:04;8.32;;;3.55;;
8104;SDS011;4095;48.942;9.104;2022-11-11T11:54:57;4.50;;;3.20;;
8104;SDS011;4095;48.942;9.104;2022-11-11T12:00:02;5.20;;;3.20;;
8104;SDS011;4095;48.942;9.104;2022-11-11T12:07:56;6.70;;;3.58;;
8104;SDS011;4095;48.942;9.104;2022-11-11T12:10:52;4.22;;;3.40;;
8104;SDS011;4095;48.942;9.104;2022-11-11T12:35:33;4.43;;;3.70;;
8104;SDS011;4095;48.942;9.104;2022-11-11T12:38:12;5.53;;;4.07;;
8104;SDS011;4095;48.942;9.104;2022-11-11T12:46:14;6.60;;;4.23;;
8104;SDS011;4095;48.942;9.104;2022-11-11T12:57:16;7.30;;;4.03;;
8104;SDS011;4095;48.942;9.104;2022-11-11T13:00:20;5.33;;;3.80;;
8104;SDS011;4095;48.942;9.104;2022-11-11T13:16:08;3.50;;;2.80;;
8104;SDS011;4095;48.942;9.104;2022-11-11T13:18:38;4.40;;;2.90;;
8104;SDS011;4095;48.942;9.104;2022-11-11T13:24:13;5.90;;;3.47;;
8104;SDS011;4095;48.942;9.104;2022-11-11T13:26:44;5.43;;;3.40;;
8104;SDS011;4095;48.942;9.104;2022-11-11T13:32:21;5.93;;;3.00;;
8104;SDS011;4095;48.942;9.104;2022-11-11T13:34:49;4.43;;;3.10;;
8104;SDS011;4095;48.942;9.104;2022-11-11T13:37:21;5.20;;;3.10;;
8104;SDS011;4095;48.942;9.104;2022-11-11T13:39:52;4.30;;;3.10;;
8104;SDS011;4095;48.942;9.104;2022-11-11T13:42:41;5.27;;;3.03;;
8104;SDS011;4095;48.942;9.104;2022-11-11T13:45:20;6.27;;;3.30;;
8104;SDS011;4095;48.942;9.104;2022-11-11T13:47:57;4.87;;;3.27;;
8104;SDS011;4095;48.942;9.104;2022-11-11T13:50:25;5.70;;;2.90;;
8104;SDS011;4095;48.942;9.104;2022-11-11T13:58:03;4.53;;;2.60;;
8104;SDS011;4095;48.942;9.104;2022-11-11T14:00:36;6.17;;;3.13;;
8104;SDS011;4095;48.942;9.104;2022-11-11T14:05:44;5.10;;;2.97;;
8104;SDS011;4095;48.942;9.104;2022-11-11T14:08:30;4.50;;;2.87;;
8104;SDS011;4095;48.942;9.104;2022-11-11T14:13:57;4.67;;;3.10;;
8104;SDS011;4095;48.942;9.104;2022-11-11T14:21:51;5.87;;;3.30;;
8104;SDS011;4095;48.942;9.104;2022-11-11T14:24:35;4.57;;;3.23;;
8104;SDS011;4095;48.942;9.104;2022-11-11T14:27:03;5.17;;;3.70;;
8104;SDS011;4095;48.942;9.104;2022-11-11T14:29:50;5.30;;;3.90;;
8104;SDS011;4095;48.942;9.104;2022-11-11T14:40:29;4.10;;;3.63;;
8104;SDS011;4095;48.942;9.104;2022-11-11T14:42:57;5.80;;;3.83;;
8104;SDS011;4095;48.942;9.104;2022-11-11T14:47:56;3.90;;;3.10;;
8104;SDS011;4095;48.942;9.104;2022-11-11T14:52:57;5.60;;;3.80;;
8104;SDS011;4095;48.942;9.104;2022-11-11T14:55:33;4.93;;;3.10;;
8104;SDS011;4095;48.942;9.104;2022-11-11T14:58:14;6.43;;;3.80;;
8104;SDS011;4095;48.942;9.104;2022-11-11T15:06:01;6.13;;;4.17;;
8104;SDS011;4095;48.942;9.104;2022-11-11T15:11:44;7.10;;;4.73;;
8104;SDS011;4095;48.942;9.104;2022-11-11T15:28:11;9.20;;;6.23;;
8104;SDS011;4095;48.942;9.104;2022-11-11T15:31:18;9.33;;;6.27;;
8104;SDS011;4095;48.942;9.104;2022-11-11T15:34:01;8.63;;;6.83;;
8104;SDS011;4095;48.942;9.104;2022-11-11T15:36:55;9.93;;;7.20;;
8104;SDS011;4095;48.942;9.104;2022-11-11T15:39:41;8.70;;;6.33;;
8104;SDS011;4095;48.942;9.104;2022-11-11T15:42:12;10.87;;;7.10;;
8104;SDS011;4095;48.942;9.104;2022-11-11T15:44:42;12.67;;;7.90;;
8104;SDS011;4095;48.942;9.104;2022-11-11T15:47:11;10.50;;;6.83;;
8104;SDS011;4095;48.942;9.104;2022-11-11T15:49:39;10.53;;;7.10;;
8104;SDS011;4095;48.942;9.104;2022-11-11T15:54:53;8.87;;;6.80;;
8104;SDS011;4095;48.942;9.104;2022-11-11T15:57:30;10.33;;;7.13;;
8104;SDS011;4095;48.942;9.104;2022-11-11T15:59:58;11.40;;;8.00;;
8104;SDS011;4095;48.942;9.104;2022-11-11T16:02:26;10.23;;;7.50;;
8104;SDS011;4095;48.942;9.104;2022-11-11T16:04:56;10.67;;;8.33;;
8104;SDS011;4095;48.942;9.104;2022-11-11T16:07:30;10.90;;;7.67;;
8104;SDS011;4095;48.942;9.104;2022-11-11T16:10:06;9.07;;;7.63;;
8104;SDS011;4095;48.942;9.104;2022-11-11T16:12:42;9.27;;;7.87;;
8104;SDS011;4095;48.942;9.104;2022-11-11T16:15:09;10.13;;;7.97;;
8104;SDS011;4095;48.942;9.104;2022-11-11T16:17:42;10.70;;;7.63;;
8104;SDS011;4095;48.942;9.104;2022-11-11T16:20:19;10.37;;;7.77;;
8104;SDS011;4095;48.942;9.104;2022-11-11T16:22:49;10.43;;;7.10;;
8104;SDS011;4095;48.942;9.104;2022-11-11T16:25:19;13.27;;;7.40;;
8104;SDS011;4095;48.942;9.104;2022-11-11T16:27:45;13.97;;;7.30;;
8104;SDS011;4095;48.942;9.104;2022-11-11T16:30:16;10.53;;;7.70;;
8104;SDS011;4095;48.942;9.104;2022-11-11T16:32:50;10.77;;;7.37;;
8104;SDS011;4095;48.942;9.104;2022-11-11T16:35:30;10.30;;;7.27;;
8104;SDS011;4095;48.942;9.104;2022-11-11T16:38:00;15.33;;;9.53;;
8104;SDS011;4095;48.942;9.104;2022-11-11T16:45:47;10.33;;;7.97;;
8104;SDS011;4095;48.942;9.104;2022-11-11T16:50:59;12.53;;;8.37;;
8104;SDS011;4095;48.942;9.104;2022-11-11T16:53:30;9.80;;;7.53;;
8104;SDS011;4095;48.942;9.104;2022-11-11T16:56:03;25.10;;;20.73;;
8104;SDS011;4095;48.942;9.104;2022-11-11T16:58:30;26.27;;;21.13;;
8104;SDS011;4095;48.942;9.104;2022-11-11T17:01:00;32.13;;;22.83;;
8104;SDS011;4095;48.942;9.104;2022-11-11T17:03:27;28.30;;;21.70;;
8104;SDS011;4095;48.942;9.104;2022-11-11T17:05:55;20.77;;;14.70;;
8104;SDS011;4095;48.942;9.104;2022-11-11T17:08:29;16.30;;;10.47;;
8104;SDS011;4095;48.942;9.104;2022-11-11T17:10:55;13.60;;;9.73;;
8104;SDS011;4095;48.942;9.104;2022-11-11T17:13:22;12.53;;;10.70;;
8104;SDS011;4095;48.942;9.104;2022-11-11T17:15:49;12.43;;;9.43;;
8104;SDS011;4095;48.942;9.104;2022-11-11T17:18:16;10.17;;;7.63;;
8104;SDS011;4095;48.942;9.104;2022-11-11T17:20:42;10.07;;;8.77;;
8104;SDS011;4095;48.942;9.104;2022-11-11T17:23:08;9.37;;;8.13;;
8104;SDS011;4095;48.942;9.104;2022-11-11T17:25:33;9.67;;;7.93;;
8104;SDS011;4095;48.942;9.104;2022-11-11T17:27:59;11.03;;;8.33;;
8104;SDS011;4095;48.942;9.104;2022-11-11T17:30:25;10.93;;;8.10;;
8104;SDS011;4095;48.942;9.104;2022-11-11T17:32:50;9.73;;;8.23;;
8104;SDS011;4095;48.942;9.104;2022-11-11T17:35:16;10.77;;;8.00;;
8104;SDS011;4095;48.942;9.104;2022-11-11T17:37:41;11.20;;;8.07;;
8104;SDS011;4095;48.942;9.104;2022-11-11T17:40:08;9.17;;;8.23;;
8104;SDS011;4095;48.942;9.104;2022-11-11T17:42:35;9.27;;;8.17;;
8104;SDS011;4095;48.942;9.104;2022-11-11T17:45:02;11.27;;;8.57;;
8104;SDS011;4095;48.942;9.104;2022-11-11T17:47:28;12.83;;;9.17;;
8104;SDS011;4095;48.942;9.104;2022-11-11T17:49:55;10.73;;;8.97;;
8104;SDS011;4095;48.942;9.104;2022-11-11T17:52:22;10.80;;;9.53;;
8104;SDS011;4095;48.942;9.104;2022-11-11T17:54:48;10.37;;;8.63;;
8104;SDS011;4095;48.942;9.104;2022-11-11T17:57:13;9.47;;;8.30;;
8104;SDS011;4095;48.942;9.104;2022-11-11T17:59:39;10.30;;;8.70;;
8104;SDS011;4095;48.942;9.104;2022-11-11T18:02:05;9.70;;;8.70;;
8104;SDS011;4095;48.942;9.104;2022-11-11T18:04:31;10.40;;;8.53;;
8104;SDS011;4095;48.942;9.104;2022-11-11T18:06:56;10.00;;;8.47;;
8104;SDS011;4095;48.942;9.104;2022-11-11T18:09:22;13.10;;;9.80;;
8104;SDS011;4095;48.942;9.104;2022-11-11T18:11:47;14.97;;;11.17;;
8104;SDS011;4095;48.942;9.104;2022-11-11T18:14:13;15.83;;;12.17;;
8104;SDS011;4095;48.942;9.104;2022-11-11T18:16:41;16.93;;;12.10;;
8104;SDS011;4095;48.942;9.104;2022-11-11T18:19:08;24.23;;;16.60;;